sensor_id;sensor_type;location;lat;lon;timestamp;P1;durP1;ratioP1;P2;durP2;ratioP2
41709;SDS011;59402;48.396;-4.472;2023-06-14T00:01:47;24.92;;;14.95;;
41709;SDS011;59402;48.396;-4.472;2023-06-14T00:04:13;23.25;;;13.82;;
41709;SDS011;59402;48.396;-4.472;2023-06-14T00:06:41;23.95;;;13.70;;
41709;SDS011;59402;48.396;-4.472;2023-06-14T00:09:10;24.67;;;15.02;;
41709;SDS011;59402;48.396;-4.472;2023-06-14T00:11:38;29.73;;;16.33;;
41709;SDS011;59402;48.396;-4.472;2023-06-14T00:14:05;24.15;;;14.85;;
41709;SDS011;59402;48.396;-4.472;2023-06-14T00:16:30;25.92;;;14.85;;
41709;SDS011;59402;48.396;-4.472;2023-06-14T00:21:24;36.58;;;17.25;;
41709;SDS011;59402;48.396;-4.472;2023-06-14T00:23:50;47.20;;;16.88;;
41709;SDS011;59402;48.396;-4.472;2023-06-14T00:26:15;35.17;;;16.65;;
41709;SDS011;59402;48.396;-4.472;2023-06-14T00:28:43;33.63;;;18.00;;
41709;SDS011;59402;48.396;-4.472;2023-06-14T00:31:08;45.60;;;18.05;;
41709;SDS011;59402;48.396;-4.472;2023-06-14T00:33:34;29.30;;;17.08;;
41709;SDS011;59402;48.396;-4.472;2023-06-14T00:36:00;34.72;;;19.52;;
41709;SDS011;59402;48.396;-4.472;2023-06-14T00:38:26;35.15;;;18.30;;
41709;SDS011;59402;48.396;-4.472;2023-06-14T00:40:51;32.85;;;16.65;;
41709;SDS011;59402;48.396;-4.472;2023-06-14T00:43:17;23.85;;;15.32;;
41709;SDS011;59402;48.396;-4.472;2023-06-14T00:45:43;24.55;;;15.70;;
41709;SDS011;59402;48.396;-4.472;2023-06-14T00:48:09;34.33;;;16.08;;
41709;SDS011;59402;48.396;-4.472;2023-06-14T00:50:35;33.35;;;16.63;;
41709;SDS011;59402;48.396;-4.472;2023-06-14T00:53:01;40.72;;;16.08;;
41709;SDS011;59402;48.396;-4.472;2023-06-14T00:55:28;34.13;;;16.47;;
41709;SDS011;59402;48.396;-4.472;2023-06-14T00:57:54;35.63;;;14.65;;
41709;SDS011;59402;48.396;-4.472;2023-06-14T01:00:21;37.10;;;15.05;;
41709;SDS011;59402;48.396;-4.472;2023-06-14T01:02:47;19.98;;;12.98;;
41709;SDS011;59402;48.396;-4.472;2023-06-14T01:05:14;23.20;;;12.27;;
41709;SDS011;59402;48.396;-4.472;2023-06-14T01:07:51;20.42;;;12.82;;
41709;SDS011;59402;48.396;-4.472;2023-06-14T01:15:44;24.88;;;11.70;;
41709;SDS011;59402;48.396;-4.472;2023-06-14T01:18:10;20.73;;;11.45;;
41709;SDS011;59402;48.396;-4.472;2023-06-14T01:20:42;23.20;;;10.70;;
41709;SDS011;59402;48.396;-4.472;2023-06-14T01:23:10;24.95;;;10.48;;
41709;SDS011;59402;48.396;-4.472;2023-06-14T01:25:37;16.25;;;10.20;;
41709;SDS011;59402;48.396;-4.472;2023-06-14T01:28:05;20.17;;;9.55;;
41709;SDS011;59402;48.396;-4.472;2023-06-14T01:30:42;37.30;;;9.82;;
41709;SDS011;59402;48.396;-4.472;2023-06-14T01:33:23;19.70;;;8.38;;
41709;SDS011;59402;48.396;-4.472;2023-06-14T01:35:52;21.95;;;9.63;;
41709;SDS011;59402;48.396;-4.472;2023-06-14T01:38:19;17.87;;;9.77;;
41709;SDS011;59402;48.396;-4.472;2023-06-14T01:40:49;17.60;;;9.70;;
41709;SDS011;59402;48.396;-4.472;2023-06-14T01:43:16;21.83;;;9.43;;
41709;SDS011;59402;48.396;-4.472;2023-06-14T01:45:44;14.15;;;9.60;;
41709;SDS011;59402;48.396;-4.472;2023-06-14T01:48:10;20.92;;;9.15;;
41709;SDS011;59402;48.396;-4.472;2023-06-14T01:50:37;19.42;;;9.27;;
41709;SDS011;59402;48.396;-4.472;2023-06-14T01:53:03;22.33;;;10.32;;
41709;SDS011;59402;48.396;-4.472;2023-06-14T01:55:36;27.33;;;9.77;;
41709;SDS011;59402;48.396;-4.472;2023-06-14T01:58:08;18.20;;;9.68;;
41709;SDS011;59402;48.396;-4.472;2023-06-14T02:00:35;25.55;;;10.32;;
41709;SDS011;59402;48.396;-4.472;2023-06-14T02:03:01;17.50;;;9.13;;
41709;SDS011;59402;48.396;-4.472;2023-06-14T02:05:29;13.50;;;8.73;;
41709;SDS011;59402;48.396;-4.472;2023-06-14T02:07:55;32.90;;;9.30;;
41709;SDS011;59402;48.396;-4.472;2023-06-14T02:10:21;17.67;;;7.88;;
41709;SDS011;59402;48.396;-4.472;2023-06-14T02:12:47;15.27;;;9.07;;
41709;SDS011;59402;48.396;-4.472;2023-06-14T02:15:13;14.52;;;8.60;;
41709;SDS011;59402;48.396;-4.472;2023-06-14T02:17:47;20.48;;;8.80;;
41709;SDS011;59402;48.396;-4.472;2023-06-14T02:20:15;19.92;;;8.85;;
41709;SDS011;59402;48.396;-4.472;2023-06-14T02:22:41;21.00;;;9.90;;
41709;SDS011;59402;48.396;-4.472;2023-06-14T02:25:07;24.30;;;8.75;;
41709;SDS011;59402;48.396;-4.472;2023-06-14T02:27:34;17.45;;;8.95;;
41709;SDS011;59402;48.396;-4.472;2023-06-14T02:30:00;35.50;;;10.38;;
41709;SDS011;59402;48.396;-4.472;2023-06-14T02:32:26;17.70;;;8.57;;
41709;SDS011;59402;48.396;-4.472;2023-06-14T02:34:52;18.30;;;8.88;;
41709;SDS011;59402;48.396;-4.472;2023-06-14T02:37:19;16.92;;;8.13;;
41709;SDS011;59402;48.396;-4.472;2023-06-14T02:39:45;31.88;;;9.38;;
41709;SDS011;59402;48.396;-4.472;2023-06-14T02:42:11;25.67;;;8.93;;
41709;SDS011;59402;48.396;-4.472;2023-06-14T02:44:37;17.20;;;8.48;;
41709;SDS011;59402;48.396;-4.472;2023-06-14T02:47:03;19.73;;;9.35;;
41709;SDS011;59402;48.396;-4.472;2023-06-14T02:49:30;29.23;;;10.15;;
41709;SDS011;59402;48.396;-4.472;2023-06-14T02:51:55;19.88;;;10.18;;
41709;SDS011;59402;48.396;-4.472;2023-06-14T02:54:21;14.50;;;8.88;;
41709;SDS011;59402;48.396;-4.472;2023-06-14T02:56:47;22.10;;;9.90;;
41709;SDS011;59402;48.396;-4.472;2023-06-14T02:59:13;16.75;;;9.85;;
41709;SDS011;59402;48.396;-4.472;2023-06-14T03:01:39;19.23;;;10.07;;
41709;SDS011;59402;48.396;-4.472;2023-06-14T03:04:08;24.67;;;10.57;;
41709;SDS011;59402;48.396;-4.472;2023-06-14T03:06:37;17.30;;;10.60;;
41709;SDS011;59402;48.396;-4.472;2023-06-14T03:11:31;24.08;;;10.55;;
41709;SDS011;59402;48.396;-4.472;2023-06-14T03:13:58;16.77;;;9.80;;
41709;SDS011;59402;48.396;-4.472;2023-06-14T03:18:54;17.70;;;10.60;;
41709;SDS011;59402;48.396;-4.472;2023-06-14T03:21:22;24.73;;;9.98;;
41709;SDS011;59402;48.396;-4.472;2023-06-14T03:23:49;20.35;;;9.35;;
41709;SDS011;59402;48.396;-4.472;2023-06-14T03:26:15;18.02;;;9.65;;
41709;SDS011;59402;48.396;-4.472;2023-06-14T03:28:46;16.50;;;9.07;;
41709;SDS011;59402;48.396;-4.472;2023-06-14T03:31:13;14.13;;;9.37;;
41709;SDS011;59402;48.396;-4.472;2023-06-14T03:33:39;12.70;;;8.20;;
41709;SDS011;59402;48.396;-4.472;2023-06-14T03:36:05;13.02;;;8.85;;
41709;SDS011;59402;48.396;-4.472;2023-06-14T03:38:32;21.65;;;9.10;;
41709;SDS011;59402;48.396;-4.472;2023-06-14T03:40:58;13.82;;;8.82;;
41709;SDS011;59402;48.396;-4.472;2023-06-14T03:43:24;14.02;;;8.23;;
41709;SDS011;59402;48.396;-4.472;2023-06-14T03:45:50;15.95;;;9.00;;
41709;SDS011;59402;48.396;-4.472;2023-06-14T03:48:17;10.75;;;7.50;;
41709;SDS011;59402;48.396;-4.472;2023-06-14T03:50:43;12.90;;;7.05;;
41709;SDS011;59402;48.396;-4.472;2023-06-14T03:53:09;13.13;;;7.87;;
41709;SDS011;59402;48.396;-4.472;2023-06-14T03:55:38;14.30;;;7.95;;
41709;SDS011;59402;48.396;-4.472;2023-06-14T03:58:04;22.30;;;7.97;;
41709;SDS011;59402;48.396;-4.472;2023-06-14T04:00:30;12.32;;;7.95;;
41709;SDS011;59402;48.396;-4.472;2023-06-14T04:02:57;10.93;;;7.18;;
41709;SDS011;59402;48.396;-4.472;2023-06-14T04:05:24;9.70;;;6.30;;
41709;SDS011;59402;48.396;-4.472;2023-06-14T04:07:53;10.75;;;7.40;;
41709;SDS011;59402;48.396;-4.472;2023-06-14T04:10:21;11.05;;;7.68;;
41709;SDS011;59402;48.396;-4.472;2023-06-14T04:12:46;14.00;;;8.57;;
41709;SDS011;59402;48.396;-4.472;2023-06-14T04:15:12;10.80;;;6.32;;
41709;SDS011;59402;48.396;-4.472;2023-06-14T04:17:39;10.52;;;7.38;;
41709;SDS011;59402;48.396;-4.472;2023-06-14T04:20:05;24.15;;;7.25;;
41709;SDS011;59402;48.396;-4.472;2023-06-14T04:22:34;13.88;;;7.22;;
41709;SDS011;59402;48.396;-4.472;2023-06-14T04:25:02;11.73;;;6.32;;
41709;SDS011;59402;48.396;-4.472;2023-06-14T04:27:29;10.82;;;6.72;;
41709;SDS011;59402;48.396;-4.472;2023-06-14T04:29:58;11.18;;;7.22;;
41709;SDS011;59402;48.396;-4.472;2023-06-14T04:32:32;10.57;;;6.65;;
41709;SDS011;59402;48.396;-4.472;2023-06-14T04:35:05;13.70;;;6.38;;
41709;SDS011;59402;48.396;-4.472;2023-06-14T04:37:32;11.93;;;7.20;;
41709;SDS011;59402;48.396;-4.472;2023-06-14T04:39:59;10.77;;;7.47;;
41709;SDS011;59402;48.396;-4.472;2023-06-14T04:42:25;10.13;;;6.43;;
41709;SDS011;59402;48.396;-4.472;2023-06-14T04:44:58;9.88;;;6.57;;
41709;SDS011;59402;48.396;-4.472;2023-06-14T04:47:24;9.15;;;6.43;;
41709;SDS011;59402;48.396;-4.472;2023-06-14T04:49:50;10.25;;;6.63;;
41709;SDS011;59402;48.396;-4.472;2023-06-14T04:52:19;9.88;;;6.28;;
41709;SDS011;59402;48.396;-4.472;2023-06-14T04:54:46;10.40;;;6.97;;
41709;SDS011;59402;48.396;-4.472;2023-06-14T04:57:16;9.95;;;6.32;;
41709;SDS011;59402;48.396;-4.472;2023-06-14T04:59:44;11.15;;;7.20;;
41709;SDS011;59402;48.396;-4.472;2023-06-14T05:02:10;10.60;;;7.28;;
41709;SDS011;59402;48.396;-4.472;2023-06-14T05:04:37;11.07;;;7.03;;
41709;SDS011;59402;48.396;-4.472;2023-06-14T05:07:06;12.52;;;7.68;;
41709;SDS011;59402;48.396;-4.472;2023-06-14T05:11:59;11.00;;;7.00;;
41709;SDS011;59402;48.396;-4.472;2023-06-14T05:14:25;10.30;;;6.43;;
41709;SDS011;59402;48.396;-4.472;2023-06-14T05:16:51;9.10;;;6.00;;
41709;SDS011;59402;48.396;-4.472;2023-06-14T05:19:18;9.33;;;6.53;;
41709;SDS011;59402;48.396;-4.472;2023-06-14T05:21:47;11.30;;;5.45;;
41709;SDS011;59402;48.396;-4.472;2023-06-14T05:24:13;7.00;;;5.22;;
41709;SDS011;59402;48.396;-4.472;2023-06-14T05:26:39;8.98;;;5.55;;
41709;SDS011;59402;48.396;-4.472;2023-06-14T05:29:05;9.13;;;5.68;;
41709;SDS011;59402;48.396;-4.472;2023-06-14T05:31:31;8.60;;;5.68;;
41709;SDS011;59402;48.396;-4.472;2023-06-14T05:33:58;7.82;;;5.85;;
41709;SDS011;59402;48.396;-4.472;2023-06-14T05:36:23;10.00;;;6.10;;
41709;SDS011;59402;48.396;-4.472;2023-06-14T05:38:50;10.45;;;6.88;;
41709;SDS011;59402;48.396;-4.472;2023-06-14T05:41:16;13.35;;;7.07;;
41709;SDS011;59402;48.396;-4.472;2023-06-14T05:43:42;8.95;;;6.57;;
41709;SDS011;59402;48.396;-4.472;2023-06-14T05:46:08;9.63;;;6.28;;
41709;SDS011;59402;48.396;-4.472;2023-06-14T05:48:33;12.07;;;6.70;;
41709;SDS011;59402;48.396;-4.472;2023-06-14T05:50:59;9.55;;;6.07;;
41709;SDS011;59402;48.396;-4.472;2023-06-14T05:53:25;10.75;;;6.28;;
41709;SDS011;59402;48.396;-4.472;2023-06-14T05:55:51;10.15;;;6.57;;
41709;SDS011;59402;48.396;-4.472;2023-06-14T06:00:44;9.75;;;5.90;;
41709;SDS011;59402;48.396;-4.472;2023-06-14T06:03:11;10.55;;;6.05;;
41709;SDS011;59402;48.396;-4.472;2023-06-14T06:05:38;7.95;;;5.25;;
41709;SDS011;59402;48.396;-4.472;2023-06-14T06:08:04;8.60;;;5.30;;
41709;SDS011;59402;48.396;-4.472;2023-06-14T06:10:30;7.35;;;5.03;;
41709;SDS011;59402;48.396;-4.472;2023-06-14T06:12:56;7.88;;;5.32;;
41709;SDS011;59402;48.396;-4.472;2023-06-14T06:15:21;8.13;;;5.55;;
41709;SDS011;59402;48.396;-4.472;2023-06-14T06:17:47;9.68;;;5.57;;
41709;SDS011;59402;48.396;-4.472;2023-06-14T06:20:13;9.27;;;5.47;;
41709;SDS011;59402;48.396;-4.472;2023-06-14T06:22:38;9.70;;;5.85;;
41709;SDS011;59402;48.396;-4.472;2023-06-14T06:25:04;7.82;;;5.18;;
41709;SDS011;59402;48.396;-4.472;2023-06-14T06:27:31;11.30;;;5.70;;
41709;SDS011;59402;48.396;-4.472;2023-06-14T06:29:57;7.47;;;5.10;;
41709;SDS011;59402;48.396;-4.472;2023-06-14T06:32:23;10.10;;;5.88;;
41709;SDS011;59402;48.396;-4.472;2023-06-14T06:34:49;8.20;;;5.63;;
41709;SDS011;59402;48.396;-4.472;2023-06-14T06:37:15;8.40;;;5.72;;
41709;SDS011;59402;48.396;-4.472;2023-06-14T06:39:40;10.15;;;5.72;;
41709;SDS011;59402;48.396;-4.472;2023-06-14T06:42:06;7.63;;;5.10;;
41709;SDS011;59402;48.396;-4.472;2023-06-14T06:44:35;9.05;;;5.78;;
41709;SDS011;59402;48.396;-4.472;2023-06-14T06:47:01;8.68;;;5.93;;
41709;SDS011;59402;48.396;-4.472;2023-06-14T06:49:27;8.55;;;5.25;;
41709;SDS011;59402;48.396;-4.472;2023-06-14T06:52:03;7.88;;;4.72;;
41709;SDS011;59402;48.396;-4.472;2023-06-14T06:54:30;7.73;;;5.40;;
41709;SDS011;59402;48.396;-4.472;2023-06-14T06:56:56;9.77;;;5.32;;
41709;SDS011;59402;48.396;-4.472;2023-06-14T06:59:22;8.52;;;5.22;;
41709;SDS011;59402;48.396;-4.472;2023-06-14T07:01:48;7.60;;;5.40;;
41709;SDS011;59402;48.396;-4.472;2023-06-14T07:04:14;9.30;;;5.78;;
41709;SDS011;59402;48.396;-4.472;2023-06-14T07:06:41;7.03;;;4.75;;
41709;SDS011;59402;48.396;-4.472;2023-06-14T07:09:07;8.35;;;5.07;;
41709;SDS011;59402;48.396;-4.472;2023-06-14T07:11:38;9.27;;;4.53;;
41709;SDS011;59402;48.396;-4.472;2023-06-14T07:14:04;6.70;;;4.53;;
41709;SDS011;59402;48.396;-4.472;2023-06-14T07:16:30;7.65;;;5.00;;
41709;SDS011;59402;48.396;-4.472;2023-06-14T07:18:56;7.22;;;4.75;;
41709;SDS011;59402;48.396;-4.472;2023-06-14T07:21:21;7.65;;;4.57;;
41709;SDS011;59402;48.396;-4.472;2023-06-14T07:23:47;6.85;;;4.88;;
41709;SDS011;59402;48.396;-4.472;2023-06-14T07:26:13;6.13;;;4.70;;
41709;SDS011;59402;48.396;-4.472;2023-06-14T07:28:39;7.22;;;4.40;;
41709;SDS011;59402;48.396;-4.472;2023-06-14T07:31:05;5.83;;;4.10;;
41709;SDS011;59402;48.396;-4.472;2023-06-14T07:33:31;6.57;;;4.53;;
41709;SDS011;59402;48.396;-4.472;2023-06-14T07:35:57;6.85;;;4.40;;
41709;SDS011;59402;48.396;-4.472;2023-06-14T07:38:23;5.53;;;3.72;;
41709;SDS011;59402;48.396;-4.472;2023-06-14T07:40:49;6.10;;;4.28;;
41709;SDS011;59402;48.396;-4.472;2023-06-14T07:43:14;5.43;;;3.58;;
41709;SDS011;59402;48.396;-4.472;2023-06-14T07:45:40;6.78;;;4.63;;
41709;SDS011;59402;48.396;-4.472;2023-06-14T07:48:06;8.38;;;5.13;;
41709;SDS011;59402;48.396;-4.472;2023-06-14T07:50:31;6.68;;;4.82;;
41709;SDS011;59402;48.396;-4.472;2023-06-14T07:52:57;7.55;;;5.25;;
41709;SDS011;59402;48.396;-4.472;2023-06-14T07:55:23;7.43;;;5.22;;
41709;SDS011;59402;48.396;-4.472;2023-06-14T07:57:50;7.38;;;4.82;;
41709;SDS011;59402;48.396;-4.472;2023-06-14T08:00:16;7.95;;;5.15;;
41709;SDS011;59402;48.396;-4.472;2023-06-14T08:02:43;7.28;;;5.30;;
41709;SDS011;59402;48.396;-4.472;2023-06-14T08:05:10;7.35;;;5.57;;
41709;SDS011;59402;48.396;-4.472;2023-06-14T08:07:37;7.57;;;5.45;;
41709;SDS011;59402;48.396;-4.472;2023-06-14T08:10:04;10.47;;;5.97;;
41709;SDS011;59402;48.396;-4.472;2023-06-14T08:12:30;10.00;;;5.93;;
41709;SDS011;59402;48.396;-4.472;2023-06-14T08:14:56;8.40;;;6.28;;
41709;SDS011;59402;48.396;-4.472;2023-06-14T08:17:21;9.35;;;6.43;;
41709;SDS011;59402;48.396;-4.472;2023-06-14T08:19:47;10.70;;;6.43;;
41709;SDS011;59402;48.396;-4.472;2023-06-14T08:22:13;13.68;;;7.18;;
41709;SDS011;59402;48.396;-4.472;2023-06-14T08:24:39;9.20;;;6.75;;
41709;SDS011;59402;48.396;-4.472;2023-06-14T08:27:06;9.50;;;6.63;;
41709;SDS011;59402;48.396;-4.472;2023-06-14T08:29:31;10.60;;;6.88;;
41709;SDS011;59402;48.396;-4.472;2023-06-14T08:31:57;12.45;;;8.00;;
41709;SDS011;59402;48.396;-4.472;2023-06-14T08:34:23;12.95;;;7.63;;
41709;SDS011;59402;48.396;-4.472;2023-06-14T08:36:52;13.27;;;6.90;;
41709;SDS011;59402;48.396;-4.472;2023-06-14T08:39:17;8.57;;;6.38;;
41709;SDS011;59402;48.396;-4.472;2023-06-14T08:41:46;11.95;;;7.00;;
41709;SDS011;59402;48.396;-4.472;2023-06-14T08:44:16;9.50;;;6.03;;
41709;SDS011;59402;48.396;-4.472;2023-06-14T08:46:42;8.88;;;6.20;;
41709;SDS011;59402;48.396;-4.472;2023-06-14T08:49:08;11.07;;;6.47;;
41709;SDS011;59402;48.396;-4.472;2023-06-14T08:51:36;8.75;;;6.20;;
41709;SDS011;59402;48.396;-4.472;2023-06-14T08:54:03;10.80;;;7.68;;
41709;SDS011;59402;48.396;-4.472;2023-06-14T08:56:29;9.23;;;7.07;;
41709;SDS011;59402;48.396;-4.472;2023-06-14T08:58:56;9.18;;;6.82;;
41709;SDS011;59402;48.396;-4.472;2023-06-14T09:01:26;9.45;;;6.65;;
41709;SDS011;59402;48.396;-4.472;2023-06-14T09:03:52;10.48;;;6.68;;
41709;SDS011;59402;48.396;-4.472;2023-06-14T09:06:20;8.48;;;6.22;;
41709;SDS011;59402;48.396;-4.472;2023-06-14T09:08:48;10.48;;;6.43;;
41709;SDS011;59402;48.396;-4.472;2023-06-14T09:11:15;9.02;;;6.55;;
41709;SDS011;59402;48.396;-4.472;2023-06-14T09:13:44;11.43;;;6.70;;
41709;SDS011;59402;48.396;-4.472;2023-06-14T09:16:10;9.70;;;6.55;;
41709;SDS011;59402;48.396;-4.472;2023-06-14T09:18:37;12.60;;;7.38;;
41709;SDS011;59402;48.396;-4.472;2023-06-14T09:21:07;10.43;;;7.30;;
41709;SDS011;59402;48.396;-4.472;2023-06-14T09:23:41;12.65;;;7.13;;
41709;SDS011;59402;48.396;-4.472;2023-06-14T09:26:08;11.73;;;7.10;;
41709;SDS011;59402;48.396;-4.472;2023-06-14T09:28:36;11.75;;;7.75;;
41709;SDS011;59402;48.396;-4.472;2023-06-14T09:31:13;16.50;;;7.50;;
41709;SDS011;59402;48.396;-4.472;2023-06-14T09:33:47;10.88;;;6.68;;
41709;SDS011;59402;48.396;-4.472;2023-06-14T09:36:23;9.48;;;7.03;;
41709;SDS011;59402;48.396;-4.472;2023-06-14T09:38:57;9.65;;;7.03;;
41709;SDS011;59402;48.396;-4.472;2023-06-14T09:41:36;10.45;;;7.47;;
41709;SDS011;59402;48.396;-4.472;2023-06-14T09:44:04;11.50;;;8.70;;
41709;SDS011;59402;48.396;-4.472;2023-06-14T09:48:59;9.68;;;8.48;;
41709;SDS011;59402;48.396;-4.472;2023-06-14T09:51:26;10.88;;;7.13;;
41709;SDS011;59402;48.396;-4.472;2023-06-14T09:53:53;14.27;;;9.02;;
41709;SDS011;59402;48.396;-4.472;2023-06-14T09:56:26;10.35;;;8.32;;
41709;SDS011;59402;48.396;-4.472;2023-06-14T09:58:58;10.68;;;8.13;;
41709;SDS011;59402;48.396;-4.472;2023-06-14T10:01:25;13.30;;;7.95;;
41709;SDS011;59402;48.396;-4.472;2023-06-14T10:04:04;11.40;;;7.80;;
41709;SDS011;59402;48.396;-4.472;2023-06-14T10:06:32;10.35;;;8.82;;
41709;SDS011;59402;48.396;-4.472;2023-06-14T10:09:02;13.95;;;10.18;;
41709;SDS011;59402;48.396;-4.472;2023-06-14T10:11:29;12.68;;;9.40;;
41709;SDS011;59402;48.396;-4.472;2023-06-14T10:13:55;12.50;;;9.45;;
41709;SDS011;59402;48.396;-4.472;2023-06-14T10:21:43;9.88;;;8.20;;
41709;SDS011;59402;48.396;-4.472;2023-06-14T10:24:18;13.30;;;9.18;;
41709;SDS011;59402;48.396;-4.472;2023-06-14T10:26:49;12.45;;;9.82;;
41709;SDS011;59402;48.396;-4.472;2023-06-14T10:29:19;11.82;;;8.63;;
41709;SDS011;59402;48.396;-4.472;2023-06-14T10:31:49;12.93;;;10.20;;
41709;SDS011;59402;48.396;-4.472;2023-06-14T10:36:59;14.95;;;9.13;;
41709;SDS011;59402;48.396;-4.472;2023-06-14T10:39:26;14.93;;;9.80;;
41709;SDS011;59402;48.396;-4.472;2023-06-14T10:41:53;14.32;;;10.68;;
41709;SDS011;59402;48.396;-4.472;2023-06-14T10:46:49;19.30;;;12.10;;
41709;SDS011;59402;48.396;-4.472;2023-06-14T10:49:17;17.23;;;11.45;;
41709;SDS011;59402;48.396;-4.472;2023-06-14T10:51:45;17.10;;;11.82;;
41709;SDS011;59402;48.396;-4.472;2023-06-14T10:56:39;18.50;;;13.38;;
41709;SDS011;59402;48.396;-4.472;2023-06-14T10:59:14;18.17;;;13.50;;
41709;SDS011;59402;48.396;-4.472;2023-06-14T11:01:41;18.33;;;13.10;;
41709;SDS011;59402;48.396;-4.472;2023-06-14T11:04:50;17.70;;;13.82;;
41709;SDS011;59402;48.396;-4.472;2023-06-14T11:12:44;17.42;;;13.13;;
41709;SDS011;59402;48.396;-4.472;2023-06-14T11:15:13;17.02;;;13.07;;
41709;SDS011;59402;48.396;-4.472;2023-06-14T11:17:38;15.35;;;12.02;;
41709;SDS011;59402;48.396;-4.472;2023-06-14T11:20:11;17.17;;;14.13;;
41709;SDS011;59402;48.396;-4.472;2023-06-14T11:22:41;17.83;;;14.15;;
41709;SDS011;59402;48.396;-4.472;2023-06-14T11:25:10;18.13;;;13.18;;
41709;SDS011;59402;48.396;-4.472;2023-06-14T11:27:39;19.02;;;15.02;;
41709;SDS011;59402;48.396;-4.472;2023-06-14T11:30:07;20.83;;;16.38;;
41709;SDS011;59402;48.396;-4.472;2023-06-14T11:32:34;21.45;;;15.68;;
41709;SDS011;59402;48.396;-4.472;2023-06-14T11:35:04;22.15;;;15.15;;
41709;SDS011;59402;48.396;-4.472;2023-06-14T11:37:30;23.40;;;15.17;;
41709;SDS011;59402;48.396;-4.472;2023-06-14T11:39:58;20.27;;;16.00;;
41709;SDS011;59402;48.396;-4.472;2023-06-14T11:42:29;23.02;;;16.25;;
41709;SDS011;59402;48.396;-4.472;2023-06-14T11:44:55;19.45;;;15.68;;
41709;SDS011;59402;48.396;-4.472;2023-06-14T11:47:21;36.75;;;15.55;;
41709;SDS011;59402;48.396;-4.472;2023-06-14T11:49:47;25.60;;;13.75;;
41709;SDS011;59402;48.396;-4.472;2023-06-14T11:52:13;28.15;;;12.27;;
41709;SDS011;59402;48.396;-4.472;2023-06-14T11:54:39;26.90;;;14.60;;
41709;SDS011;59402;48.396;-4.472;2023-06-14T11:57:08;28.65;;;12.13;;
41709;SDS011;59402;48.396;-4.472;2023-06-14T11:59:38;21.10;;;14.30;;
41709;SDS011;59402;48.396;-4.472;2023-06-14T12:02:05;25.17;;;15.25;;
41709;SDS011;59402;48.396;-4.472;2023-06-14T12:04:32;25.50;;;12.30;;
41709;SDS011;59402;48.396;-4.472;2023-06-14T12:07:08;19.10;;;14.02;;
41709;SDS011;59402;48.396;-4.472;2023-06-14T12:09:39;17.10;;;13.27;;
41709;SDS011;59402;48.396;-4.472;2023-06-14T12:12:06;19.98;;;12.55;;
41709;SDS011;59402;48.396;-4.472;2023-06-14T12:14:32;20.40;;;13.07;;
41709;SDS011;59402;48.396;-4.472;2023-06-14T12:17:07;17.95;;;11.80;;
41709;SDS011;59402;48.396;-4.472;2023-06-14T12:19:33;16.80;;;12.48;;
41709;SDS011;59402;48.396;-4.472;2023-06-14T12:22:09;17.42;;;14.35;;
41709;SDS011;59402;48.396;-4.472;2023-06-14T12:24:35;18.13;;;14.15;;
41709;SDS011;59402;48.396;-4.472;2023-06-14T12:27:01;17.60;;;13.52;;
41709;SDS011;59402;48.396;-4.472;2023-06-14T12:29:30;16.30;;;13.35;;
41709;SDS011;59402;48.396;-4.472;2023-06-14T12:31:56;17.70;;;13.20;;
41709;SDS011;59402;48.396;-4.472;2023-06-14T12:34:25;19.35;;;13.88;;
41709;SDS011;59402;48.396;-4.472;2023-06-14T12:36:52;15.63;;;11.95;;
41709;SDS011;59402;48.396;-4.472;2023-06-14T12:39:19;17.63;;;12.88;;
41709;SDS011;59402;48.396;-4.472;2023-06-14T12:41:46;17.35;;;13.23;;
41709;SDS011;59402;48.396;-4.472;2023-06-14T12:44:12;18.35;;;11.85;;
41709;SDS011;59402;48.396;-4.472;2023-06-14T12:46:38;17.58;;;14.13;;
41709;SDS011;59402;48.396;-4.472;2023-06-14T12:49:05;15.68;;;12.50;;
41709;SDS011;59402;48.396;-4.472;2023-06-14T12:51:32;19.17;;;13.75;;
41709;SDS011;59402;48.396;-4.472;2023-06-14T12:53:58;14.65;;;11.05;;
41709;SDS011;59402;48.396;-4.472;2023-06-14T12:56:24;14.23;;;12.07;;
41709;SDS011;59402;48.396;-4.472;2023-06-14T12:58:49;15.77;;;11.45;;
41709;SDS011;59402;48.396;-4.472;2023-06-14T13:01:15;19.15;;;13.15;;
41709;SDS011;59402;48.396;-4.472;2023-06-14T13:03:41;16.40;;;12.02;;
41709;SDS011;59402;48.396;-4.472;2023-06-14T13:06:07;16.77;;;10.48;;
41709;SDS011;59402;48.396;-4.472;2023-06-14T13:08:33;18.48;;;11.63;;
41709;SDS011;59402;48.396;-4.472;2023-06-14T13:10:58;15.15;;;12.52;;
41709;SDS011;59402;48.396;-4.472;2023-06-14T13:13:24;15.02;;;11.27;;
41709;SDS011;59402;48.396;-4.472;2023-06-14T13:15:50;18.95;;;12.48;;
41709;SDS011;59402;48.396;-4.472;2023-06-14T13:18:16;17.65;;;12.90;;
41709;SDS011;59402;48.396;-4.472;2023-06-14T13:20:42;17.42;;;12.85;;
41709;SDS011;59402;48.396;-4.472;2023-06-14T13:23:08;17.08;;;12.38;;
41709;SDS011;59402;48.396;-4.472;2023-06-14T13:25:35;16.00;;;12.60;;
41709;SDS011;59402;48.396;-4.472;2023-06-14T13:28:03;18.15;;;11.20;;
41709;SDS011;59402;48.396;-4.472;2023-06-14T13:30:30;18.10;;;13.02;;
41709;SDS011;59402;48.396;-4.472;2023-06-14T13:32:56;19.17;;;10.65;;
41709;SDS011;59402;48.396;-4.472;2023-06-14T13:35:22;20.50;;;13.13;;
41709;SDS011;59402;48.396;-4.472;2023-06-14T13:37:48;19.33;;;12.45;;
41709;SDS011;59402;48.396;-4.472;2023-06-14T13:40:14;14.73;;;11.07;;
41709;SDS011;59402;48.396;-4.472;2023-06-14T13:42:40;17.93;;;12.77;;
41709;SDS011;59402;48.396;-4.472;2023-06-14T13:45:06;17.90;;;10.60;;
41709;SDS011;59402;48.396;-4.472;2023-06-14T13:47:32;17.70;;;12.40;;
41709;SDS011;59402;48.396;-4.472;2023-06-14T13:49:58;18.20;;;12.00;;
41709;SDS011;59402;48.396;-4.472;2023-06-14T13:52:24;14.87;;;10.47;;
41709;SDS011;59402;48.396;-4.472;2023-06-14T13:54:50;17.58;;;13.02;;
41709;SDS011;59402;48.396;-4.472;2023-06-14T13:57:16;17.48;;;12.98;;
41709;SDS011;59402;48.396;-4.472;2023-06-14T13:59:43;20.73;;;11.52;;
41709;SDS011;59402;48.396;-4.472;2023-06-14T14:02:09;16.48;;;10.77;;
41709;SDS011;59402;48.396;-4.472;2023-06-14T14:04:36;15.40;;;10.82;;
41709;SDS011;59402;48.396;-4.472;2023-06-14T14:07:03;20.30;;;13.82;;
41709;SDS011;59402;48.396;-4.472;2023-06-14T14:09:29;16.88;;;11.00;;
41709;SDS011;59402;48.396;-4.472;2023-06-14T14:11:55;16.73;;;13.30;;
41709;SDS011;59402;48.396;-4.472;2023-06-14T14:14:21;21.50;;;10.93;;
41709;SDS011;59402;48.396;-4.472;2023-06-14T14:16:48;19.02;;;11.88;;
41709;SDS011;59402;48.396;-4.472;2023-06-14T14:19:16;19.40;;;13.80;;
41709;SDS011;59402;48.396;-4.472;2023-06-14T14:21:44;19.05;;;12.40;;
41709;SDS011;59402;48.396;-4.472;2023-06-14T14:24:10;18.95;;;11.00;;
41709;SDS011;59402;48.396;-4.472;2023-06-14T14:26:36;22.17;;;10.90;;
41709;SDS011;59402;48.396;-4.472;2023-06-14T14:29:02;17.87;;;13.17;;
41709;SDS011;59402;48.396;-4.472;2023-06-14T14:31:28;22.30;;;12.07;;
41709;SDS011;59402;48.396;-4.472;2023-06-14T14:33:53;16.53;;;10.93;;
41709;SDS011;59402;48.396;-4.472;2023-06-14T14:36:19;14.93;;;10.87;;
41709;SDS011;59402;48.396;-4.472;2023-06-14T14:38:45;18.37;;;10.73;;
41709;SDS011;59402;48.396;-4.472;2023-06-14T14:41:12;14.18;;;11.30;;
41709;SDS011;59402;48.396;-4.472;2023-06-14T14:43:38;14.90;;;11.25;;
41709;SDS011;59402;48.396;-4.472;2023-06-14T14:46:04;16.15;;;11.75;;
41709;SDS011;59402;48.396;-4.472;2023-06-14T14:48:30;16.40;;;11.13;;
41709;SDS011;59402;48.396;-4.472;2023-06-14T14:50:56;14.50;;;10.07;;
41709;SDS011;59402;48.396;-4.472;2023-06-14T14:53:22;13.17;;;9.80;;
41709;SDS011;59402;48.396;-4.472;2023-06-14T14:55:48;21.03;;;11.73;;
41709;SDS011;59402;48.396;-4.472;2023-06-14T14:58:14;24.80;;;11.50;;